createdAt,value
2019-03-08T00:11:29.528Z,9.03
2019-03-08T00:16:30.438Z,9.67
2019-03-08T00:19:00.878Z,8.90
2019-03-08T00:21:30.881Z,9.37
2019-03-08T00:26:30.518Z,10.63
2019-03-08T00:29:00.845Z,10.07
2019-03-08T00:31:31.698Z,8.03
2019-03-08T00:34:02.518Z,7.20
2019-03-08T00:41:30.697Z,3.30
2019-03-08T00:44:00.817Z,4.80
2019-03-08T00:46:31.342Z,5.83
2019-03-08T00:49:01.256Z,3.93
2019-03-08T00:51:32.480Z,3.93
2019-03-08T00:56:32.878Z,4.47
2019-03-08T00:59:02.862Z,3.03
2019-03-08T01:11:37.466Z,3.93
2019-03-08T01:14:06.567Z,3.67
2019-03-08T01:16:35.457Z,5.40
2019-03-08T01:26:30.792Z,4.63
2019-03-08T01:29:01.686Z,3.90
2019-03-08T01:31:32.262Z,5.87
2019-03-08T01:34:02.717Z,3.57
2019-03-08T01:41:30.785Z,5.27
2019-03-08T01:44:00.928Z,4.03
2019-03-08T01:46:30.935Z,3.90
2019-03-08T01:49:01.346Z,3.13
2019-03-08T01:51:31.720Z,2.87
2019-03-08T01:56:31.112Z,4.30
2019-03-08T01:59:01.439Z,3.53
2019-03-08T02:01:32.398Z,3.97
2019-03-08T02:04:01.358Z,5.17
2019-03-08T02:06:31.881Z,4.40
2019-03-08T02:11:31.187Z,3.83
2019-03-08T02:16:30.637Z,8.67
2019-03-08T02:19:01.488Z,4.47
2019-03-08T02:21:31.888Z,5.07
2019-03-08T02:24:02.192Z,7.33
2019-03-08T02:29:02.257Z,15.87
2019-03-08T02:34:01.445Z,18.50
2019-03-08T02:36:32.111Z,17.47
2019-03-08T02:41:31.839Z,10.73
2019-03-08T02:44:02.357Z,8.77
2019-03-08T02:49:01.434Z,5.73
2019-03-08T02:51:31.757Z,6.30
2019-03-08T02:54:02.112Z,6.37
2019-03-08T02:59:01.702Z,8.23
2019-03-08T03:01:32.278Z,8.93
2019-03-08T03:04:02.350Z,8.90
2019-03-08T03:09:01.477Z,6.70
2019-03-08T03:11:31.693Z,6.87
2019-03-08T03:14:02.447Z,7.30
2019-03-08T03:16:32.878Z,7.07
2019-03-08T03:19:03.798Z,7.60
2019-03-08T03:21:32.902Z,7.57
2019-03-08T03:24:03.116Z,7.73
2019-03-08T03:26:33.437Z,10.47
2019-03-08T03:29:04.054Z,17.50
2019-03-08T03:31:32.968Z,17.13
2019-03-08T03:34:03.471Z,12.57
2019-03-08T03:39:05.447Z,7.00
2019-03-08T03:44:04.397Z,2.80
2019-03-08T03:46:34.200Z,3.43
2019-03-08T03:49:04.718Z,3.60
2019-03-08T03:51:33.791Z,2.77
2019-03-08T03:54:03.708Z,5.27
2019-03-08T03:59:03.039Z,5.43
2019-03-08T04:09:10.665Z,5.77
2019-03-08T04:11:39.482Z,4.40
2019-03-08T04:19:05.113Z,3.90
2019-03-08T04:24:02.468Z,3.23
2019-03-08T04:26:32.827Z,7.93
2019-03-08T04:29:02.707Z,2.83
2019-03-08T04:31:33.341Z,4.03
2019-03-08T04:34:04.101Z,3.37
2019-03-08T04:39:03.388Z,3.63
2019-03-08T04:41:33.509Z,5.97
2019-03-08T04:44:04.116Z,4.60
2019-03-08T04:46:34.468Z,2.50
2019-03-08T04:49:04.792Z,4.23
2019-03-08T04:51:33.797Z,1.73
2019-03-08T04:54:03.819Z,2.93
2019-03-08T04:59:03.118Z,4.67
2019-03-08T05:01:32.925Z,3.23
2019-03-08T05:04:03.458Z,6.33
2019-03-08T05:06:33.366Z,4.13
2019-03-08T05:09:04.112Z,5.63
2019-03-08T05:11:34.112Z,4.90
2019-03-08T05:14:04.287Z,3.87
2019-03-08T05:16:34.158Z,4.50
2019-03-08T05:19:04.807Z,3.23
2019-03-08T05:21:34.692Z,6.50
2019-03-08T05:24:06.346Z,5.37
2019-03-08T05:26:35.077Z,4.17
2019-03-08T05:29:05.117Z,4.43
2019-03-08T05:34:04.569Z,3.40
2019-03-08T05:36:35.126Z,4.77
2019-03-08T05:44:04.113Z,5.50
2019-03-08T05:46:34.567Z,6.57
2019-03-08T05:49:04.997Z,5.30
2019-03-08T05:51:35.524Z,4.83
2019-03-08T05:54:07.206Z,2.87
2019-03-08T05:56:36.678Z,3.93
2019-03-08T05:59:06.890Z,4.13
2019-03-08T06:04:06.839Z,4.77
2019-03-08T06:06:35.838Z,3.63
2019-03-08T06:09:08.185Z,3.23
2019-03-08T06:14:06.377Z,5.70
2019-03-08T06:16:36.321Z,3.80
2019-03-08T06:19:07.758Z,4.50
2019-03-08T06:21:36.758Z,3.90
2019-03-08T06:24:07.800Z,4.63
2019-03-08T06:29:07.535Z,6.93
2019-03-08T06:31:36.489Z,6.00
2019-03-08T06:34:06.708Z,5.13
2019-03-08T06:39:07.459Z,7.10
2019-03-08T06:41:36.998Z,5.67
2019-03-08T06:44:08.204Z,4.57
2019-03-08T06:54:07.977Z,5.40
2019-03-08T06:56:38.508Z,3.90
2019-03-08T06:59:27.806Z,4.13
2019-03-08T07:01:58.507Z,4.67
2019-03-08T07:04:28.839Z,4.57
2019-03-08T07:06:59.798Z,4.63
2019-03-08T07:09:30.398Z,3.07
2019-03-08T07:12:00.508Z,4.33
2019-03-08T07:14:30.942Z,5.67
2019-03-08T07:17:01.359Z,6.37
2019-03-08T07:19:40.361Z,5.20
2019-03-08T07:25:01.009Z,8.00
2019-03-08T07:30:28.792Z,3.70
2019-03-08T07:33:15.698Z,6.33
2019-03-08T07:36:03.328Z,3.77
2019-03-08T07:38:53.516Z,3.93
2019-03-08T07:41:51.488Z,3.53
2019-03-08T07:44:35.149Z,3.13
2019-03-08T07:47:26.455Z,9.47
2019-03-08T07:50:07.827Z,3.60
2019-03-08T07:55:23.126Z,4.40
2019-03-08T07:58:12.794Z,3.27
2019-03-08T08:03:19.682Z,3.73
2019-03-08T08:06:04.653Z,2.40
2019-03-08T08:08:53.411Z,3.37
2019-03-08T08:11:42.399Z,5.80
2019-03-08T08:14:25.909Z,6.10
2019-03-08T08:17:06.121Z,7.10
2019-03-08T08:19:48.258Z,5.70
2019-03-08T08:22:37.839Z,4.87
2019-03-08T08:25:26.488Z,4.20
2019-03-08T08:28:16.478Z,4.13
2019-03-08T08:30:57.348Z,4.40
2019-03-08T08:33:42.118Z,3.40
2019-03-08T08:41:27.828Z,3.10
2019-03-08T08:44:18.229Z,4.40
2019-03-08T08:47:13.128Z,5.80
2019-03-08T08:50:02.119Z,7.17
2019-03-08T08:52:53.120Z,7.53
2019-03-08T08:55:34.069Z,3.77
2019-03-08T08:58:23.749Z,5.60
2019-03-08T09:01:13.950Z,10.60
2019-03-08T09:04:02.889Z,5.07
2019-03-08T09:09:32.559Z,5.83
2019-03-08T09:12:11.149Z,7.10
2019-03-08T09:14:43.548Z,5.87
2019-03-08T09:17:36.362Z,3.47
2019-03-08T09:20:34.762Z,8.80
2019-03-08T09:23:19.118Z,5.80
2019-03-08T09:25:57.334Z,6.57
2019-03-08T09:28:41.651Z,6.77
2019-03-08T09:31:27.652Z,4.03
2019-03-08T09:34:12.126Z,3.50
2019-03-08T09:39:36.050Z,5.60
2019-03-08T09:42:30.159Z,4.03
2019-03-08T09:45:23.759Z,5.23
2019-03-08T09:48:03.123Z,5.50
2019-03-08T09:50:46.149Z,7.87
2019-03-08T09:53:18.800Z,4.83
2019-03-08T10:03:46.269Z,2.93
2019-03-08T10:06:38.677Z,3.13
2019-03-08T10:09:30.882Z,4.17
2019-03-08T10:12:24.431Z,7.03
2019-03-08T10:15:09.516Z,2.47
2019-03-08T10:17:59.140Z,2.37
2019-03-08T10:23:49.171Z,4.77
2019-03-08T10:26:39.809Z,2.63
2019-03-08T10:29:46.777Z,6.07
2019-03-08T10:32:39.149Z,5.10
2019-03-08T10:38:10.672Z,3.80
2019-03-08T10:43:35.495Z,2.33
2019-03-08T10:46:27.659Z,3.43
2019-03-08T10:49:07.898Z,4.93
2019-03-08T10:51:59.321Z,4.27
2019-03-08T10:59:31.499Z,3.27
2019-03-08T11:02:13.829Z,4.50
2019-03-08T11:05:08.706Z,6.40
2019-03-08T11:07:55.429Z,6.33
2019-03-08T11:10:45.518Z,1.77
2019-03-08T11:13:43.328Z,2.77
2019-03-08T11:19:14.962Z,3.60
2019-03-08T11:22:04.718Z,4.53
2019-03-08T11:24:44.569Z,5.10
2019-03-08T11:30:17.504Z,4.67
2019-03-08T11:33:03.118Z,5.40
2019-03-08T11:35:50.308Z,5.73
2019-03-08T11:38:42.638Z,3.87
2019-03-08T11:41:28.022Z,5.83
2019-03-08T11:44:21.897Z,4.43
2019-03-08T11:47:18.159Z,5.60
2019-03-08T11:50:14.798Z,2.33
2019-03-08T11:53:07.204Z,4.47
2019-03-08T11:58:52.609Z,7.07
2019-03-08T12:01:29.791Z,9.03
2019-03-08T12:04:25.589Z,3.80
2019-03-08T12:06:59.999Z,5.90
2019-03-08T12:09:55.138Z,5.80
2019-03-08T12:12:25.558Z,6.10
2019-03-08T12:26:18.469Z,4.60
2019-03-08T12:37:18.881Z,5.67
2019-03-08T12:40:07.389Z,3.27
2019-03-08T12:42:57.920Z,6.33
2019-03-08T12:45:27.799Z,3.87
2019-03-08T12:51:05.871Z,4.63
2019-03-08T12:53:55.618Z,6.90
2019-03-08T12:56:39.161Z,5.20
2019-03-08T12:59:28.511Z,4.03
2019-03-08T13:01:59.119Z,4.27
2019-03-08T13:04:53.019Z,7.17
2019-03-08T13:07:42.798Z,3.67
2019-03-08T13:10:15.919Z,2.63
2019-03-08T13:12:46.716Z,6.27
2019-03-08T13:15:15.513Z,4.27
2019-03-08T13:17:45.714Z,9.00
2019-03-08T13:20:16.768Z,2.83
2019-03-08T13:22:47.515Z,3.30
2019-03-08T13:25:18.227Z,7.53
2019-03-08T13:27:46.818Z,7.13
2019-03-08T13:30:18.470Z,6.83
2019-03-08T13:35:17.783Z,13.10
2019-03-08T13:37:46.468Z,5.40
2019-03-08T13:40:17.119Z,6.37
2019-03-08T13:42:46.921Z,7.87
2019-03-08T13:45:16.938Z,4.57
2019-03-08T13:47:47.046Z,6.97
2019-03-08T13:52:47.494Z,4.60
2019-03-08T13:55:16.377Z,5.53
2019-03-08T13:57:46.718Z,5.57
2019-03-08T14:02:44.690Z,3.40
2019-03-08T14:05:13.597Z,4.87
2019-03-08T14:07:43.843Z,4.57
2019-03-08T14:12:42.710Z,3.30
2019-03-08T14:15:11.499Z,5.13
2019-03-08T14:17:41.622Z,5.33
2019-03-08T14:20:13.476Z,6.67
2019-03-08T14:22:43.691Z,5.60
2019-03-08T14:25:13.709Z,6.93
2019-03-08T14:27:42.497Z,5.53
2019-03-08T14:30:13.749Z,5.83
2019-03-08T14:32:43.398Z,7.43
2019-03-08T14:35:13.673Z,5.23
2019-03-08T14:40:30.498Z,8.50
2019-03-08T14:45:44.576Z,5.40
2019-03-08T14:48:12.359Z,6.53
2019-03-08T14:50:42.878Z,10.03
2019-03-08T14:53:12.869Z,8.97
2019-03-08T14:55:43.438Z,11.47
2019-03-08T14:58:13.833Z,6.90
2019-03-08T15:00:42.758Z,7.13
2019-03-08T15:03:13.277Z,7.07
2019-03-08T15:05:42.449Z,7.17
2019-03-08T15:08:13.604Z,11.17
2019-03-08T15:13:12.708Z,5.97
2019-03-08T15:15:41.688Z,7.37
2019-03-08T15:18:11.908Z,7.73
2019-03-08T15:20:42.447Z,8.53
2019-03-08T15:23:13.350Z,7.13
2019-03-08T15:25:45.155Z,8.13
2019-03-08T15:30:44.758Z,6.87
2019-03-08T15:35:42.116Z,7.90
2019-03-08T15:40:40.218Z,8.97
2019-03-08T15:43:09.797Z,10.83
2019-03-08T15:45:44.395Z,7.50
2019-03-08T15:48:14.606Z,10.73
2019-03-08T15:50:46.666Z,11.17
2019-03-08T15:53:17.262Z,13.03
2019-03-08T15:55:52.830Z,8.87
2019-03-08T15:58:18.613Z,14.53
2019-03-08T16:00:47.929Z,9.67
2019-03-08T16:03:18.575Z,6.90
2019-03-08T16:05:49.392Z,9.27
2019-03-08T16:08:20.242Z,7.30
2019-03-08T16:10:51.071Z,6.17
2019-03-08T16:13:21.488Z,6.57
2019-03-08T16:15:51.508Z,10.10
2019-03-08T16:20:51.639Z,6.77
2019-03-08T16:23:21.280Z,9.17
2019-03-08T16:25:51.876Z,11.63
2019-03-08T16:30:53.878Z,8.67
2019-03-08T16:33:28.486Z,9.97
2019-03-08T16:36:15.806Z,8.23
2019-03-08T16:39:03.437Z,6.30
2019-03-08T16:41:50.760Z,12.27
2019-03-08T16:44:31.217Z,7.50
2019-03-08T16:47:22.434Z,4.63
2019-03-08T16:50:06.678Z,8.07
2019-03-08T16:52:53.489Z,5.87
2019-03-08T16:55:41.428Z,6.90
2019-03-08T17:06:56.968Z,10.03
2019-03-08T17:09:42.902Z,9.43
2019-03-08T17:15:00.915Z,7.87
2019-03-08T17:17:50.488Z,7.77
2019-03-08T17:20:34.119Z,9.97
2019-03-08T17:25:57.910Z,8.37
2019-03-08T17:31:56.516Z,5.63
2019-03-08T17:34:45.780Z,7.93
2019-03-08T17:37:27.578Z,6.13
2019-03-08T17:40:09.765Z,7.87
2019-03-08T17:42:58.948Z,7.13
2019-03-08T17:45:51.076Z,7.87
2019-03-08T17:51:08.720Z,8.13
2019-03-08T17:54:08.050Z,7.70
2019-03-08T17:56:56.478Z,6.93
2019-03-08T17:59:25.878Z,6.50
2019-03-08T18:05:26.038Z,11.00
2019-03-08T18:08:31.779Z,10.07
2019-03-08T18:21:40.868Z,11.37
2019-03-08T18:48:46.398Z,8.30
2019-03-08T19:04:30.410Z,9.10
2019-03-08T19:24:13.947Z,12.57
2019-03-08T19:30:10.119Z,9.43
2019-03-08T19:33:33.120Z,6.67
2019-03-08T19:42:51.126Z,10.67
2019-03-08T19:46:21.978Z,8.77
2019-03-08T19:52:17.828Z,11.43
2019-03-08T20:41:36.905Z,14.80
2019-03-08T20:44:18.697Z,10.93
2019-03-08T20:50:05.422Z,12.80
2019-03-08T21:01:00.874Z,14.17
2019-03-08T21:04:12.865Z,13.00
2019-03-08T21:11:06.393Z,13.87
2019-03-08T21:13:53.793Z,14.10
2019-03-08T21:26:28.473Z,13.30
